Airfield :
LOGIN :

Register | Disclaimer

   EN    FR    IT 

 










Legend :    VFR   Marginal VFR   IFR   Intensive IFR   Very Intensive IFR
Visi :
Ceiling :
>= 8 km
>= 3000ft
5 to 8 km
1000 to 3000 ft
1500m to 5 km
500 to 1000 ft
800 to 1500m
200 to 500 ft
< 800m
< 200 ft
Symbols :   Thunderstorms  Fog  Heavy snow  Heavy precipitations  Wind > 20 kt
SIGMETs :     Misc.  Thunderstorms  Icing  Turbulence  Mountain Waves  Volcanic Ashes






- Airport Elevation : 291 ft
- IATA code : ORY


LFPO - Paris-Orly

CURRENT METAR :
  • 220830Z 23008KT 7000 BKN007 OVC013 15/14 Q1015 BECMG BKN012

EXPIRED METARs :
  • 220800Z 23008KT 190V250 7000 BKN006 OVC011 15/14 Q1015 BECMG BKN012
  • 220730Z 21008KT 180V240 4000 -DZ FEW005 BKN006 14/14 Q1015 NOSIG
  • 220700Z 20006KT 4500 -DZ FEW005 BKN006 14/13 Q1015 NOSIG
  • 220600Z 19006KT 4500 -DZ BKN008 BKN013 13/13 Q1015 NOSIG
  • 220530Z 19005KT 160V220 7000 SCT009 BKN010 13/12 Q1015 TEMPO 4000 -RADZ BKN009
  • 220500Z AUTO 21005KT 9999 FEW019 BKN038 BKN045 13/12 Q1015 TEMPO 2500 DZRA BKN009
  • 220430Z AUTO 23007KT 9999 -RA FEW013 BKN052 BKN066 13/11 Q1015 TEMPO 2500 DZRA BKN009
  • 220400Z AUTO 23009KT 9999 -RA FEW015/// OVC088/// ///TCU 13/12 Q1015 TEMPO 2500 DZRA BKN009

TAF TAF LFPO
Valid from the 22 at 06:00 until the 23 at 12:00 UTC


220500Z 2206/2312 24010KT 9999 BKN012
TEMPO 2206/2209 4000 RADZ BKN009
PROB40
TEMPO 2209/2211 3000 RA SCT015TCU
BECMG 2211/2212 BKN020
PROB40
TEMPO 2212/2216 30010KT -SHRA SCT025TCU
PROB30 2212/2215 4000 SHRA FEW025CB
BECMG 2216/2219 33005KT CAVOK
ATIS : +33 1 49 75 65 80



MET'MAP, your aeronautical weather chart ! - Copyright ORBIFLY December 2007 - Disclaimer

ORBIFLY MET'MAP TEAM :

Programming & Development : Alexandra Zaïnal
Original concept : Baudouin d'Aumeries
Technical & hardware support : Manuel Goepfert
Assistance : Marc-Olivier Méhu




SOURCES & CREDITS :

   NOAA